Colorado Springs, CO (80914)

5:09 AM MST on December 06, 2016 (GMT -0700)
Cimarron Hills | | Change Station

Elev 6385 ft 38.85 °N, 104.71 °W | Updated 30 seconds ago

Clear
Clear
6.1 °F
Feels Like 6 °F
N
0.0
Wind Variable Wind from SSW

Today
High -- | Low -- °F
--% Chance of Precip.
Yesterday
High -- | Low -- °F
Precip. -- in
Pressure 30.01 in
Visibility 10.0 miles
Clouds Clear
Windchill 6 °F
Dew Point -3 °F
Humidity 63%
Rainfall 0.00 in
Snow Depth Not available.
7:03 AM 4:36 PM
Waxing Crescent, 41% visible
METAR KCOS 061154Z 14006KT 10SM CLR M11/M19 A2991 RMK AO2 SLP161 T11111189 11078 21122 58009
Pressure 30.01 in
Visibility 10.0 miles
Clouds Clear
Windchill 6 °F
Dew Point -3 °F
Humidity 63%
Rainfall 0.00 in
Snow Depth Not available.
7:03 AM 4:36 PM
Waxing Crescent, 41% visible
METAR KCOS 061154Z 14006KT 10SM CLR M11/M19 A2991 RMK AO2 SLP161 T11111189 11078 21122 58009

10-Day Weather Forecast

Almanac

Astronomy

Dec. 06, 2016 Rise Set
Actual Time
Civil Twilight
Nautical Twilight
Astronomical Twilight
Moon
Length of Visible Light
Length of Day
Tomorrow will be .
, % of the Moon is Illuminated

Today's Extremes

State Highs State Lows

Community

WunderPhotos

Upload Photos

1,955,936 photos uploaded!

WunderBlog® & News

Nearby

Air Quality

  Air Quality AQ Index Pollutant
Not available.

Snow Depth

Station Depth Elevation

Earthquake Activity

City Distance Mag. Time & Date
Minimum magnitude displayed is 2.5.

Coastal Water Temperatures

Place Temperature

Stations

Nearby Weather Stations

Station Location Temp. Windchill Dew Point Humidity Wind Precip. Elev Updated Type
                   

Watches & Warnings

There are currently no watches in effect.